createdAt,value
2022-07-28T00:00:08.379Z,95633.84
2022-07-28T00:01:11.993Z,95633.84
2022-07-28T00:02:16.603Z,95644.97
2022-07-28T00:03:18.766Z,95633.84
2022-07-28T00:04:21.650Z,95635.88
2022-07-28T00:05:23.643Z,95644.22
2022-07-28T00:06:26.734Z,95643.47
2022-07-28T00:07:28.685Z,95636.34
2022-07-28T00:08:31.550Z,95643.94
2022-07-28T00:09:33.614Z,95628.50
2022-07-28T00:10:36.548Z,95638.09
2022-07-28T00:11:54.103Z,95638.84
2022-07-28T00:12:59.669Z,95631.75
2022-07-28T00:14:01.673Z,95630.22
2022-07-28T00:15:05.381Z,95634.53
2022-07-28T00:16:07.566Z,95632.75
2022-07-28T00:17:12.234Z,95637.81
2022-07-28T00:18:14.175Z,95631.50
2022-07-28T00:19:17.167Z,95621.63
2022-07-28T00:20:20.083Z,95628.44
2022-07-28T00:21:24.449Z,95631.22
2022-07-28T00:22:26.498Z,95621.38
2022-07-28T00:23:38.647Z,95621.84
2022-07-28T00:24:41.595Z,95626.66
2022-07-28T00:25:44.691Z,95621.09
2022-07-28T00:26:46.970Z,95619.56
2022-07-28T00:27:49.899Z,95619.56
2022-07-28T00:28:51.818Z,95620.81
2022-07-28T00:29:54.735Z,95618.03
2022-07-28T00:30:56.814Z,95612.22
2022-07-28T00:32:01.391Z,95607.91
2022-07-28T00:33:04.897Z,95611.94
2022-07-28T00:34:07.854Z,95608.91
2022-07-28T00:35:09.743Z,95611.41
2022-07-28T00:36:13.184Z,95609.88
2022-07-28T00:37:15.273Z,95616.69
2022-07-28T00:38:18.762Z,95620.25
2022-07-28T00:39:20.645Z,95613.91
2022-07-28T00:40:43.634Z,95609.13
2022-07-28T00:41:45.733Z,95611.41
2022-07-28T00:42:48.756Z,95604.31
2022-07-28T00:43:52.055Z,95598.75
2022-07-28T00:44:55.011Z,95603.56
2022-07-28T00:45:56.921Z,95602.03
2022-07-28T00:46:59.893Z,95594.97
2022-07-28T00:48:01.931Z,95595.72
2022-07-28T00:49:06.474Z,95592.19
2022-07-28T00:50:09.089Z,95584.59
2022-07-28T00:51:12.753Z,95591.41
2022-07-28T00:52:17.201Z,95601.50
2022-07-28T00:53:20.110Z,95596.72
2022-07-28T00:54:22.214Z,95594.41
2022-07-28T00:55:25.663Z,95596.91
2022-07-28T00:56:27.749Z,95592.59
2022-07-28T00:57:30.731Z,95592.59
2022-07-28T00:58:33.182Z,95589.53
2022-07-28T00:59:36.110Z,95588.03
2022-07-28T01:00:38.039Z,95588.50
2022-07-28T01:01:41.327Z,95589.25
2022-07-28T01:02:46.626Z,95586.47
2022-07-28T01:03:53.389Z,95574.59
2022-07-28T01:04:57.802Z,95582.47
2022-07-28T01:06:06.606Z,95580.44
2022-07-28T01:07:16.453Z,95576.91
2022-07-28T01:08:28.005Z,95568.81
2022-07-28T01:09:45.168Z,95569.59
2022-07-28T01:10:56.086Z,95574.38
2022-07-28T01:12:06.151Z,95574.38
2022-07-28T01:13:13.636Z,95565.53
2022-07-28T01:14:24.733Z,95566.31
2022-07-28T01:15:33.485Z,95570.34
2022-07-28T01:16:44.920Z,95568.06
2022-07-28T01:17:54.604Z,95565.28
2022-07-28T01:19:05.398Z,95558.19
2022-07-28T01:20:13.256Z,95560.97
2022-07-28T01:21:22.813Z,95565.03
2022-07-28T01:22:32.480Z,95558.44
2022-07-28T01:23:58.686Z,95553.84
2022-07-28T01:25:14.411Z,95559.41
2022-07-28T01:26:31.938Z,95553.56
2022-07-28T01:27:52.174Z,95550.53
2022-07-28T01:29:02.485Z,95546.72
2022-07-28T01:30:10.994Z,95549.22
2022-07-28T01:31:20.961Z,95546.44
2022-07-28T01:32:26.755Z,95541.69
2022-07-28T01:33:35.082Z,95550.00
2022-07-28T01:34:42.511Z,95550.78
2022-07-28T01:35:52.154Z,95551.53
2022-07-28T01:36:59.611Z,95551.53
2022-07-28T01:38:06.601Z,95555.06
2022-07-28T01:39:09.533Z,95555.56
2022-07-28T01:40:16.388Z,95548.75
2022-07-28T01:41:22.565Z,95549.22
2022-07-28T01:42:32.117Z,95552.00
2022-07-28T01:43:40.068Z,95548.47
2022-07-28T01:44:45.449Z,95554.78
2022-07-28T01:45:48.715Z,95549.75
2022-07-28T01:46:53.794Z,95550.00
2022-07-28T01:48:00.013Z,95544.19
2022-07-28T01:49:02.706Z,95540.63
2022-07-28T01:50:09.389Z,95542.66
2022-07-28T01:51:13.628Z,95545.44
2022-07-28T01:52:19.766Z,95545.44
2022-07-28T01:53:24.400Z,95546.69
2022-07-28T01:54:28.529Z,95543.91
2022-07-28T01:55:34.103Z,95547.94
2022-07-28T01:56:37.637Z,95543.66
2022-07-28T01:57:42.575Z,95554.50
2022-07-28T01:58:45.817Z,95549.94
2022-07-28T01:59:51.525Z,95552.94
2022-07-28T02:00:56.711Z,95554.84
2022-07-28T02:02:03.279Z,95551.81
2022-07-28T02:03:10.658Z,95549.78
2022-07-28T02:04:15.740Z,95549.31
2022-07-28T02:05:21.750Z,95549.56
2022-07-28T02:06:24.979Z,95548.31
2022-07-28T02:07:28.689Z,95555.13
2022-07-28T02:08:32.443Z,95542.75
2022-07-28T02:09:36.563Z,95549.56
2022-07-28T02:10:42.310Z,95545.25
2022-07-28T02:11:47.368Z,95540.47
2022-07-28T02:12:52.761Z,95543.75
2022-07-28T02:13:56.607Z,95540.97
2022-07-28T02:15:00.784Z,95538.94
2022-07-28T02:16:05.683Z,95541.44
2022-07-28T02:17:14.177Z,95539.44
2022-07-28T02:18:17.291Z,95530.34
2022-07-28T02:19:21.221Z,95541.31
2022-07-28T02:20:24.279Z,95539.06
2022-07-28T02:21:27.304Z,95531.97
2022-07-28T02:22:32.120Z,95537.03
2022-07-28T02:23:35.020Z,95537.78
2022-07-28T02:24:39.329Z,95528.69
2022-07-28T02:25:43.030Z,95535.00
2022-07-28T02:26:49.624Z,95538.53
2022-07-28T02:27:57.449Z,95537.31
2022-07-28T02:29:03.219Z,95543.84
2022-07-28T02:30:10.988Z,95534.75
2022-07-28T02:31:20.173Z,95536.28
2022-07-28T02:32:30.430Z,95530.72
2022-07-28T02:34:00.206Z,95541.06
2022-07-28T02:35:04.691Z,95537.50
2022-07-28T02:36:15.233Z,95536.00
2022-07-28T02:37:19.422Z,95530.66
2022-07-28T02:38:26.681Z,95528.38
2022-07-28T02:39:33.184Z,95527.13
2022-07-28T02:40:38.869Z,95529.16
2022-07-28T02:41:42.790Z,95521.84
2022-07-28T02:42:49.716Z,95509.16
2022-07-28T02:43:55.271Z,95520.75
2022-07-28T02:45:01.456Z,95520.75
2022-07-28T02:46:09.824Z,95522.28
2022-07-28T02:47:17.713Z,95522.28
2022-07-28T02:48:25.663Z,95524.78
2022-07-28T02:49:32.644Z,95524.50
2022-07-28T02:50:35.615Z,95522.50
2022-07-28T02:51:40.672Z,95525.78
2022-07-28T02:52:45.976Z,95518.16
2022-07-28T02:53:48.804Z,95524.47
2022-07-28T02:54:53.020Z,95531.53
2022-07-28T02:55:55.277Z,95533.28
2022-07-28T02:57:01.766Z,95537.06
2022-07-28T02:58:05.601Z,95538.09
2022-07-28T02:59:11.172Z,95536.81
2022-07-28T03:00:14.395Z,95536.34
2022-07-28T03:01:19.969Z,95539.13
2022-07-28T03:02:22.892Z,95529.00
2022-07-28T03:03:28.014Z,95536.81
2022-07-28T03:04:49.527Z,95529.25
2022-07-28T03:05:53.235Z,95533.84
2022-07-28T03:06:55.426Z,95530.78
2022-07-28T03:07:59.562Z,95529.00
2022-07-28T03:09:01.784Z,95534.56
2022-07-28T03:10:06.390Z,95528.22
2022-07-28T03:11:09.228Z,95531.78
2022-07-28T03:12:12.842Z,95533.28
2022-07-28T03:13:15.742Z,95533.78
2022-07-28T03:14:17.647Z,95538.09
2022-07-28T03:15:20.645Z,95536.06
2022-07-28T03:16:22.848Z,95536.06
2022-07-28T03:17:25.853Z,95532.25
2022-07-28T03:18:29.171Z,95531.78
2022-07-28T03:19:32.440Z,95537.34
2022-07-28T03:20:36.123Z,95539.84
2022-07-28T03:21:41.335Z,95545.41
2022-07-28T03:22:44.355Z,95544.59
2022-07-28T03:23:49.158Z,95539.06
2022-07-28T03:24:55.636Z,95535.03
2022-07-28T03:26:09.998Z,95545.41
2022-07-28T03:27:19.213Z,95540.03
2022-07-28T03:28:24.271Z,95541.03
2022-07-28T03:29:28.856Z,95540.75
2022-07-28T03:30:37.988Z,95542.78
2022-07-28T03:31:42.333Z,95545.00
2022-07-28T03:32:49.078Z,95543.47
2022-07-28T03:33:52.613Z,95544.72
2022-07-28T03:34:56.640Z,95548.50
2022-07-28T03:36:02.400Z,95547.22
2022-07-28T03:37:09.657Z,95550.28
2022-07-28T03:38:14.164Z,95545.72
2022-07-28T03:39:19.422Z,95545.72
2022-07-28T03:40:23.840Z,95541.94
2022-07-28T03:41:27.949Z,95538.41
2022-07-28T03:42:31.419Z,95545.72
2022-07-28T03:43:35.170Z,95547.22
2022-07-28T03:44:39.173Z,95537.66
2022-07-28T03:45:42.733Z,95544.72
2022-07-28T03:46:48.994Z,95537.66
2022-07-28T03:47:53.128Z,95544.72
2022-07-28T03:48:56.597Z,95539.19
2022-07-28T03:49:59.698Z,95541.69
2022-07-28T03:51:01.749Z,95542.66
2022-07-28T03:52:04.702Z,95544.69
2022-07-28T03:53:21.043Z,95534.06
2022-07-28T03:54:24.053Z,95541.13
2022-07-28T03:55:26.822Z,95537.81
2022-07-28T03:56:29.761Z,95530.72
2022-07-28T03:57:31.692Z,95537.53
2022-07-28T03:58:34.662Z,95533.50
2022-07-28T03:59:36.589Z,95537.53
2022-07-28T04:00:40.856Z,95535.03
2022-07-28T04:01:45.267Z,95534.25
2022-07-28T04:02:48.774Z,95535.28
2022-07-28T04:03:50.722Z,95538.06
2022-07-28T04:04:54.975Z,95542.38
2022-07-28T04:05:57.253Z,95545.66
2022-07-28T04:07:00.192Z,95540.03
2022-07-28T04:08:02.164Z,95540.53
2022-07-28T04:09:05.281Z,95535.22
2022-07-28T04:10:09.847Z,95541.22
2022-07-28T04:11:12.873Z,95540.47
2022-07-28T04:12:14.846Z,95545.47
2022-07-28T04:13:18.429Z,95539.91
2022-07-28T04:14:20.616Z,95541.66
2022-07-28T04:15:24.869Z,95544.72
2022-07-28T04:16:26.928Z,95539.91
2022-07-28T04:17:29.965Z,95546.97
2022-07-28T04:18:32.060Z,95542.22
2022-07-28T04:19:35.147Z,95550.78
2022-07-28T04:20:38.426Z,95546.03
2022-07-28T04:21:41.538Z,95544.50
2022-07-28T04:22:44.458Z,95551.78
2022-07-28T04:23:47.419Z,95544.06
2022-07-28T04:24:49.305Z,95543.53
2022-07-28T04:25:52.319Z,95542.47
2022-07-28T04:26:54.670Z,95543.25
2022-07-28T04:27:57.995Z,95547.53
2022-07-28T04:28:59.895Z,95541.69
2022-07-28T04:30:08.494Z,95551.84
2022-07-28T04:31:10.718Z,95550.59
2022-07-28T04:32:13.708Z,95539.75
2022-07-28T04:33:15.710Z,95537.28
2022-07-28T04:34:18.554Z,95545.91
2022-07-28T04:35:22.849Z,95547.41
2022-07-28T04:36:28.382Z,95543.41
2022-07-28T04:37:32.288Z,95537.84
2022-07-28T04:38:36.262Z,95537.28
2022-07-28T04:39:38.584Z,95545.03
2022-07-28T04:40:42.099Z,95543.81
2022-07-28T04:41:45.073Z,95543.00
2022-07-28T04:42:47.207Z,95539.00
2022-07-28T04:43:50.299Z,95550.09
2022-07-28T04:44:52.277Z,95551.84
2022-07-28T04:45:55.198Z,95549.56
2022-07-28T04:46:57.145Z,95552.59
2022-07-28T04:48:00.191Z,95543.81
2022-07-28T04:49:02.279Z,95544.56
2022-07-28T04:50:06.323Z,95551.66
2022-07-28T04:51:08.239Z,95550.41
2022-07-28T04:52:13.913Z,95547.53
2022-07-28T04:53:15.800Z,95551.28
2022-07-28T04:54:23.137Z,95545.75
2022-07-28T04:55:28.204Z,95546.03
2022-07-28T04:56:31.073Z,95557.41
2022-07-28T04:57:32.960Z,95554.13
2022-07-28T04:58:36.155Z,95553.34
2022-07-28T04:59:39.076Z,95555.19
2022-07-28T05:00:43.072Z,95555.47
2022-07-28T05:01:46.293Z,95549.44
2022-07-28T05:02:49.056Z,95553.25
2022-07-28T05:03:51.907Z,95560.09
2022-07-28T05:04:53.999Z,95554.34
2022-07-28T05:05:57.000Z,95557.66
2022-07-28T05:06:59.088Z,95549.41
2022-07-28T05:08:03.321Z,95556.81
2022-07-28T05:09:05.304Z,95540.97
2022-07-28T05:10:10.896Z,95555.69
2022-07-28T05:11:12.956Z,95544.13
2022-07-28T05:12:15.823Z,95549.75
2022-07-28T05:13:17.700Z,95555.81
2022-07-28T05:14:21.252Z,95555.63
2022-07-28T05:15:23.790Z,95560.94
2022-07-28T05:16:26.810Z,95554.63
2022-07-28T05:17:29.079Z,95560.72
2022-07-28T05:18:32.348Z,95555.72
2022-07-28T05:19:34.356Z,95555.75
2022-07-28T05:20:37.260Z,95562.66
2022-07-28T05:21:39.129Z,95560.41
2022-07-28T05:22:43.448Z,95567.47
2022-07-28T05:23:47.730Z,95565.97
2022-07-28T05:24:50.746Z,95569.78
2022-07-28T05:25:53.053Z,95565.53
2022-07-28T05:26:55.916Z,95568.56
2022-07-28T05:27:57.842Z,95566.06
2022-07-28T05:29:00.906Z,95569.13
2022-07-28T05:30:02.855Z,95565.06
2022-07-28T05:31:05.781Z,95564.09
2022-07-28T05:32:16.679Z,95567.13
2022-07-28T05:33:20.483Z,95572.00
2022-07-28T05:34:22.403Z,95567.72
2022-07-28T05:35:25.976Z,95568.75
2022-07-28T05:36:27.887Z,95560.69
2022-07-28T05:37:33.199Z,95563.72
2022-07-28T05:38:35.179Z,95555.66
2022-07-28T05:39:39.480Z,95557.91
2022-07-28T05:40:41.415Z,95560.22
2022-07-28T05:41:44.281Z,95556.63
2022-07-28T05:42:47.813Z,95558.16
2022-07-28T05:43:50.731Z,95557.16
2022-07-28T05:44:52.595Z,95553.13
2022-07-28T05:45:55.547Z,95557.72
2022-07-28T05:46:57.511Z,95550.59
2022-07-28T05:48:00.389Z,95552.91
2022-07-28T05:49:03.345Z,95558.25
2022-07-28T05:50:06.873Z,95557.25
2022-07-28T05:51:09.921Z,95553.72
2022-07-28T05:52:11.848Z,95551.97
2022-07-28T05:53:14.727Z,95558.81
2022-07-28T05:54:17.807Z,95557.81
2022-07-28T05:55:22.359Z,95558.81
2022-07-28T05:56:25.202Z,95556.50
2022-07-28T05:57:27.092Z,95555.25
2022-07-28T05:58:30.775Z,95556.78
2022-07-28T05:59:32.715Z,95565.38
2022-07-28T06:00:35.938Z,95557.31
2022-07-28T06:01:38.354Z,95567.69
2022-07-28T06:02:42.198Z,95565.66
2022-07-28T06:03:44.223Z,95567.44
2022-07-28T06:04:48.695Z,95569.22
2022-07-28T06:06:14.256Z,95565.47
2022-07-28T06:07:14.252Z,95571.28
2022-07-28T06:08:16.186Z,95567.50
2022-07-28T06:09:19.172Z,95572.53
2022-07-28T06:10:24.608Z,95567.22
2022-07-28T06:11:27.549Z,95567.22
2022-07-28T06:12:29.386Z,95561.59
2022-07-28T06:13:32.311Z,95559.56
2022-07-28T06:14:34.433Z,95568.19
2022-07-28T06:15:37.457Z,95563.16
2022-07-28T06:16:39.411Z,95564.19
2022-07-28T06:17:42.359Z,95558.88
2022-07-28T06:18:44.514Z,95571.56
2022-07-28T06:19:47.404Z,95563.22
2022-07-28T06:20:49.865Z,95566.50
2022-07-28T06:21:53.102Z,95563.25
2022-07-28T06:22:55.545Z,95560.47
2022-07-28T06:23:58.464Z,95560.25
2022-07-28T06:25:01.500Z,95564.34
2022-07-28T06:26:05.819Z,95556.50
2022-07-28T06:27:07.832Z,95561.31
2022-07-28T06:28:10.754Z,95565.13
2022-07-28T06:29:12.765Z,95557.03
2022-07-28T06:30:16.536Z,95558.56
2022-07-28T06:31:19.506Z,95556.78
2022-07-28T06:32:21.508Z,95568.94
2022-07-28T06:33:24.448Z,95565.38
2022-07-28T06:34:26.315Z,95561.56
2022-07-28T06:35:29.190Z,95560.53
2022-07-28T06:36:31.088Z,95565.34
2022-07-28T06:37:33.978Z,95559.03
2022-07-28T06:38:36.157Z,95559.03
2022-07-28T06:39:39.041Z,95561.06
2022-07-28T06:40:42.719Z,95565.84
2022-07-28T06:41:46.985Z,95563.06
2022-07-28T06:42:49.954Z,95559.03
2022-07-28T06:43:53.308Z,95571.94
2022-07-28T06:44:59.277Z,95567.66
2022-07-28T06:46:02.755Z,95569.41
2022-07-28T06:47:04.783Z,95569.69
2022-07-28T06:48:08.759Z,95566.41
2022-07-28T06:49:13.265Z,95559.09
2022-07-28T06:50:25.800Z,95560.84
2022-07-28T06:51:30.453Z,95561.34
2022-07-28T06:52:33.224Z,95564.13
2022-07-28T06:53:36.122Z,95562.59
2022-07-28T06:54:39.007Z,95561.06
2022-07-28T06:55:50.798Z,95557.03
2022-07-28T06:56:55.127Z,95570.44
2022-07-28T06:57:58.215Z,95557.28
2022-07-28T06:59:01.214Z,95557.53
2022-07-28T07:00:05.057Z,95562.13
2022-07-28T07:01:08.937Z,95556.56
2022-07-28T07:02:10.924Z,95559.09
2022-07-28T07:03:13.919Z,95560.59
2022-07-28T07:04:17.404Z,95559.56
2022-07-28T07:05:20.116Z,95554.75
2022-07-28T07:06:23.137Z,95563.59
2022-07-28T07:07:26.194Z,95554.97
2022-07-28T07:08:29.244Z,95556.50
2022-07-28T07:09:31.637Z,95554.25
2022-07-28T07:10:36.037Z,95554.75
2022-07-28T07:11:39.042Z,95555.03
2022-07-28T07:12:42.441Z,95552.50
2022-07-28T07:13:45.340Z,95558.56
2022-07-28T07:14:47.383Z,95554.50
2022-07-28T07:15:50.401Z,95555.03
2022-07-28T07:16:53.987Z,95554.25
2022-07-28T07:17:57.108Z,95555.78
2022-07-28T07:19:00.067Z,95562.13
2022-07-28T07:20:09.399Z,95549.97
2022-07-28T07:21:12.421Z,95551.75
2022-07-28T07:22:14.577Z,95545.69
2022-07-28T07:23:17.538Z,95556.34
2022-07-28T07:24:19.800Z,95552.78
2022-07-28T07:25:25.537Z,95552.28
2022-07-28T07:26:27.447Z,95552.00
2022-07-28T07:27:30.409Z,95542.41
2022-07-28T07:28:35.303Z,95546.72
2022-07-28T07:29:37.377Z,95540.66
2022-07-28T07:30:40.528Z,95539.63
2022-07-28T07:31:42.540Z,95550.56
2022-07-28T07:32:45.949Z,95547.25
2022-07-28T07:33:47.942Z,95555.59
2022-07-28T07:34:50.823Z,95549.00
2022-07-28T07:35:52.855Z,95549.97
2022-07-28T07:36:55.743Z,95549.22
2022-07-28T07:37:57.649Z,95545.91
2022-07-28T07:39:00.554Z,95541.41
2022-07-28T07:40:05.479Z,95540.34
2022-07-28T07:41:08.453Z,95544.19
2022-07-28T07:42:11.032Z,95540.34
2022-07-28T07:43:14.222Z,95543.41
2022-07-28T07:44:17.909Z,95543.94
2022-07-28T07:45:21.349Z,95538.13
2022-07-28T07:46:23.332Z,95543.19
2022-07-28T07:47:26.317Z,95535.78
2022-07-28T07:48:29.188Z,95540.13
2022-07-28T07:49:44.955Z,95541.91
2022-07-28T07:50:53.654Z,95539.38
2022-07-28T07:51:56.006Z,95538.34
2022-07-28T07:52:58.963Z,95541.19
2022-07-28T07:54:00.927Z,95543.44
2022-07-28T07:55:04.733Z,95542.47
2022-07-28T07:56:06.645Z,95543.75
2022-07-28T07:57:09.982Z,95551.56
2022-07-28T07:58:11.907Z,95542.47
2022-07-28T07:59:14.807Z,95543.97
2022-07-28T08:00:28.539Z,95547.78
2022-07-28T08:01:32.512Z,95547.53
2022-07-28T08:02:34.582Z,95544.50
2022-07-28T08:03:37.492Z,95541.44
2022-07-28T08:04:40.793Z,95540.16
2022-07-28T08:05:43.170Z,95537.38
2022-07-28T08:06:46.117Z,95540.69
2022-07-28T08:07:48.808Z,95537.66
2022-07-28T08:08:51.686Z,95541.72
2022-07-28T08:09:54.554Z,95540.97
2022-07-28T08:10:57.410Z,95545.53
2022-07-28T08:11:59.855Z,95537.44
2022-07-28T08:13:03.183Z,95539.19
2022-07-28T08:14:05.219Z,95536.97
2022-07-28T08:15:09.551Z,95542.00
2022-07-28T08:16:13.862Z,95539.72
2022-07-28T08:17:16.034Z,95540.72
2022-07-28T08:18:18.888Z,95532.13
2022-07-28T08:19:21.620Z,95546.28
2022-07-28T08:20:24.992Z,95537.94
2022-07-28T08:21:27.872Z,95534.38
2022-07-28T08:22:31.143Z,95548.56
2022-07-28T08:23:34.139Z,95539.72
2022-07-28T08:24:37.192Z,95548.09
2022-07-28T08:25:39.424Z,95550.84
2022-07-28T08:26:43.468Z,95539.97
2022-07-28T08:27:45.377Z,95535.16
2022-07-28T08:28:48.321Z,95548.56
2022-07-28T08:29:50.549Z,95536.69
2022-07-28T08:30:53.505Z,95534.66
2022-07-28T08:31:57.202Z,95539.72
2022-07-28T08:33:00.313Z,95543.56
2022-07-28T08:34:03.392Z,95538.97
2022-07-28T08:35:31.810Z,95544.78
2022-07-28T08:36:32.088Z,95539.50
2022-07-28T08:37:35.225Z,95521.78
2022-07-28T08:38:37.202Z,95535.44
2022-07-28T08:39:40.266Z,95538.00
2022-07-28T08:40:45.484Z,95531.16
2022-07-28T08:41:55.318Z,95532.44
2022-07-28T08:43:04.329Z,95533.19
2022-07-28T08:44:10.732Z,95535.22
2022-07-28T08:45:14.922Z,95542.31
2022-07-28T08:46:19.739Z,95535.97
2022-07-28T08:47:24.776Z,95533.44
2022-07-28T08:48:31.326Z,95539.25
2022-07-28T08:49:36.753Z,95536.72
2022-07-28T08:50:44.733Z,95542.56
2022-07-28T08:51:49.639Z,95533.94
2022-07-28T08:52:53.807Z,95535.47
2022-07-28T08:53:57.361Z,95530.16
2022-07-28T08:55:03.547Z,95536.75
2022-07-28T08:56:08.936Z,95534.22
2022-07-28T08:57:16.433Z,95535.22
2022-07-28T08:58:19.677Z,95537.00
2022-07-28T08:59:22.996Z,95534.72
2022-07-28T09:00:26.260Z,95542.06
2022-07-28T09:01:38.154Z,95535.22
2022-07-28T09:02:45.569Z,95534.72
2022-07-28T09:03:48.904Z,95529.91
2022-07-28T09:04:51.190Z,95531.41
2022-07-28T09:05:54.705Z,95540.03
2022-07-28T09:06:56.860Z,95537.75
2022-07-28T09:07:59.888Z,95535.72
2022-07-28T09:09:01.810Z,95527.34
2022-07-28T09:10:05.857Z,95532.19
2022-07-28T09:11:08.887Z,95535.22
2022-07-28T09:12:10.841Z,95534.47
2022-07-28T09:13:13.885Z,95532.44
2022-07-28T09:14:16.352Z,95538.50
2022-07-28T09:15:19.676Z,95538.50
2022-07-28T09:16:22.708Z,95535.97
2022-07-28T09:17:24.801Z,95532.69
2022-07-28T09:18:29.074Z,95531.41
2022-07-28T09:19:34.275Z,95530.91
2022-07-28T09:20:38.948Z,95533.97
2022-07-28T09:21:42.027Z,95532.19
2022-07-28T09:22:59.266Z,95540.81
2022-07-28T09:24:01.474Z,95538.53
2022-07-28T09:25:04.907Z,95533.69
2022-07-28T09:26:10.890Z,95533.97
2022-07-28T09:27:16.195Z,95537.00
2022-07-28T09:28:20.106Z,95540.28
2022-07-28T09:29:24.991Z,95533.19
2022-07-28T09:30:31.310Z,95534.22
2022-07-28T09:31:34.859Z,95531.16
2022-07-28T09:32:36.855Z,95529.63
2022-07-28T09:33:43.948Z,95526.84
2022-07-28T09:34:48.394Z,95526.84
2022-07-28T09:35:55.220Z,95522.03
2022-07-28T09:36:58.260Z,95527.09
2022-07-28T09:38:00.220Z,95530.13
2022-07-28T09:39:03.700Z,95526.84
2022-07-28T09:40:12.193Z,95524.81
2022-07-28T09:41:18.834Z,95529.38
2022-07-28T09:42:22.212Z,95522.78
2022-07-28T09:43:38.202Z,95526.34
2022-07-28T09:44:50.677Z,95527.84
2022-07-28T09:46:08.012Z,95515.19
2022-07-28T09:47:25.167Z,95522.78
2022-07-28T09:48:27.396Z,95522.78
2022-07-28T09:49:52.761Z,95518.47
2022-07-28T09:51:11.096Z,95518.72
2022-07-28T09:52:14.105Z,95521.50
2022-07-28T09:53:23.080Z,95520.25
2022-07-28T09:54:26.681Z,95516.19
2022-07-28T09:55:28.575Z,95514.69
2022-07-28T09:56:32.477Z,95510.34
2022-07-28T09:57:36.871Z,95518.72
2022-07-28T09:58:42.628Z,95504.78
2022-07-28T09:59:50.521Z,95511.88
2022-07-28T10:01:11.616Z,95516.44
2022-07-28T10:02:24.958Z,95513.66
2022-07-28T10:03:28.344Z,95515.16
2022-07-28T10:04:33.424Z,95508.31
2022-07-28T10:05:45.046Z,95509.81
2022-07-28T10:06:48.001Z,95519.75
2022-07-28T10:07:50.331Z,95518.47
2022-07-28T10:08:54.225Z,95521.28
2022-07-28T10:09:58.838Z,95512.91
2022-07-28T10:11:00.823Z,95506.56
2022-07-28T10:12:20.799Z,95520.50
2022-07-28T10:13:23.146Z,95512.91
2022-07-28T10:14:33.419Z,95507.31
2022-07-28T10:15:53.955Z,95507.31
2022-07-28T10:16:56.943Z,95508.59
2022-07-28T10:17:58.791Z,95496.66
2022-07-28T10:19:04.353Z,95503.78
2022-07-28T10:20:07.875Z,95498.19
2022-07-28T10:21:15.999Z,95500.22
2022-07-28T10:22:19.968Z,95497.44
2022-07-28T10:23:22.458Z,95491.09
2022-07-28T10:24:28.331Z,95497.44
2022-07-28T10:25:32.840Z,95499.19
2022-07-28T10:26:40.286Z,95499.47
2022-07-28T10:27:45.027Z,95498.69
2022-07-28T10:28:50.112Z,95494.38
2022-07-28T10:29:57.117Z,95488.03
2022-07-28T10:31:03.860Z,95493.34
2022-07-28T10:32:07.957Z,95489.31
2022-07-28T10:33:15.044Z,95489.78
2022-07-28T10:34:24.610Z,95483.44
2022-07-28T10:35:28.633Z,95484.19
2022-07-28T10:36:34.612Z,95492.31
2022-07-28T10:37:44.472Z,95497.69
2022-07-28T10:38:49.673Z,95503.47
2022-07-28T10:40:06.523Z,95504.25
2022-07-28T10:41:15.007Z,95499.44
2022-07-28T10:42:18.573Z,95494.59
2022-07-28T10:43:22.061Z,95499.69
2022-07-28T10:44:25.980Z,95487.22
2022-07-28T10:45:47.945Z,95497.91
2022-07-28T10:46:53.194Z,95492.56
2022-07-28T10:47:56.760Z,95492.03
2022-07-28T10:49:00.472Z,95494.81
2022-07-28T10:50:08.664Z,95491.03
2022-07-28T10:51:11.853Z,95492.53
2022-07-28T10:52:45.840Z,95496.59
2022-07-28T10:53:48.068Z,95497.88
2022-07-28T10:54:59.518Z,95497.13
2022-07-28T10:56:07.224Z,95492.28
2022-07-28T10:57:13.250Z,95500.66
2022-07-28T10:58:30.210Z,95499.13
2022-07-28T11:00:24.390Z,95503.94
2022-07-28T11:01:51.293Z,95494.31
2022-07-28T11:02:58.806Z,95491.53
2022-07-28T11:04:01.080Z,95496.06
2022-07-28T11:05:04.396Z,95501.66
2022-07-28T11:06:26.275Z,95498.06
2022-07-28T11:07:40.605Z,95499.09
2022-07-28T11:08:43.809Z,95495.53
2022-07-28T11:09:50.177Z,95488.19
2022-07-28T11:11:00.523Z,95488.69
2022-07-28T11:12:12.387Z,95489.22
2022-07-28T11:13:28.959Z,95486.41
2022-07-28T11:14:36.928Z,95496.06
2022-07-28T11:15:40.830Z,95489.22
2022-07-28T11:16:42.816Z,95491.50
2022-07-28T11:17:59.443Z,95481.09
2022-07-28T11:19:40.122Z,95475.50
2022-07-28T11:21:09.036Z,95488.19
2022-07-28T11:22:32.867Z,95480.81
2022-07-28T11:23:55.970Z,95477.75
2022-07-28T11:25:18.575Z,95487.91
2022-07-28T11:26:38.553Z,95477.25
2022-07-28T11:28:04.606Z,95474.97
2022-07-28T11:29:23.445Z,95480.28
2022-07-28T11:30:51.720Z,95485.13
2022-07-28T11:32:07.842Z,95481.03
2022-07-28T11:33:10.169Z,95475.47
2022-07-28T11:34:14.069Z,95482.56
2022-07-28T11:35:16.895Z,95472.66
2022-07-28T11:36:19.971Z,95471.13
2022-07-28T11:37:21.998Z,95461.75
2022-07-28T11:38:25.056Z,95471.41
2022-07-28T11:39:29.746Z,95471.91
2022-07-28T11:40:35.081Z,95470.91
2022-07-28T11:41:38.504Z,95475.22
2022-07-28T11:42:42.649Z,95475.97
2022-07-28T11:43:45.777Z,95479.53
2022-07-28T11:44:48.228Z,95481.78
2022-07-28T11:45:55.981Z,95482.78
2022-07-28T11:47:17.570Z,95474.19
2022-07-28T11:48:21.561Z,95476.22
2022-07-28T11:49:28.810Z,95468.38
2022-07-28T11:50:31.501Z,95476.22
2022-07-28T11:51:51.076Z,95475.94
2022-07-28T11:52:56.826Z,95482.03
2022-07-28T11:53:58.801Z,95468.31
2022-07-28T11:55:03.712Z,95470.09
2022-07-28T11:56:07.735Z,95482.03
2022-07-28T11:57:11.891Z,95475.66
2022-07-28T11:58:25.479Z,95475.41
2022-07-28T11:59:36.450Z,95473.63
2022-07-28T12:00:39.884Z,95481.50
2022-07-28T12:01:51.729Z,95471.06
2022-07-28T12:02:54.719Z,95477.41
2022-07-28T12:03:59.262Z,95469.56
2022-07-28T12:05:11.271Z,95476.16
2022-07-28T12:06:14.751Z,95468.53
2022-07-28T12:07:17.787Z,95471.81
2022-07-28T12:08:20.708Z,95465.47
2022-07-28T12:09:34.873Z,95472.06
2022-07-28T12:10:54.870Z,95458.09
2022-07-28T12:11:57.453Z,95466.72
2022-07-28T12:13:02.209Z,95468.25
2022-07-28T12:14:05.802Z,95471.53
2022-07-28T12:15:09.349Z,95465.19
2022-07-28T12:16:14.244Z,95456.31
2022-07-28T12:17:16.366Z,95458.38
2022-07-28T12:18:19.446Z,95458.38
2022-07-28T12:19:21.961Z,95466.22
2022-07-28T12:20:30.555Z,95463.41
2022-07-28T12:21:37.624Z,95458.59
2022-07-28T12:22:55.640Z,95459.88
2022-07-28T12:23:58.540Z,95457.81
2022-07-28T12:25:00.992Z,95450.75
2022-07-28T12:26:06.389Z,95461.63
2022-07-28T12:27:14.900Z,95460.88
2022-07-28T12:28:19.877Z,95453.75
2022-07-28T12:29:21.986Z,95457.84
2022-07-28T12:30:29.806Z,95457.56
2022-07-28T12:31:33.415Z,95455.03
2022-07-28T12:32:37.002Z,95461.63
2022-07-28T12:33:39.409Z,95459.81
2022-07-28T12:34:44.363Z,95460.31
2022-07-28T12:35:47.680Z,95453.47
2022-07-28T12:36:52.136Z,95464.09
2022-07-28T12:37:55.125Z,95452.69
2022-07-28T12:38:58.344Z,95451.19
2022-07-28T12:40:02.594Z,95452.41
2022-07-28T12:41:15.436Z,95450.66
2022-07-28T12:42:19.371Z,95446.34
2022-07-28T12:43:21.867Z,95447.63
2022-07-28T12:44:33.593Z,95449.38
2022-07-28T12:45:45.637Z,95449.13
2022-07-28T12:46:48.897Z,95446.88
2022-07-28T12:47:51.974Z,95444.84